Time;durP1;ratioP1;P1;durP2;ratioP2;P2;SDS_P1;SDS_P2;PMS_P1;PMS_P2;Temp;Humidity;BMP_temperature;BMP_pressure;BME280_temperature;BME280_humidity;BME280_pressure;Samples;Min_cycle;Max_cycle;Signal;HPM_P1;HPM_P2
2021/06/25 00:02:51;;;;;;;2.08;0.98;;;21.30;57.50;;;;;;6315766;28;20048;-75
2021/06/25 00:05:52;;;;;;;1.50;0.90;;;21.20;57.60;;;;;;6298858;28;20036;-75
2021/06/25 00:08:53;;;;;;;2.60;1.40;;;21.20;57.80;;;;;;6298275;28;20036;-75
2021/06/25 00:11:54;;;;;;;1.13;0.93;;;21.10;57.90;;;;;;6299032;28;20040;-75
2021/06/25 00:14:56;;;;;;;1.67;1.20;;;21.10;58.10;;;;;;6314465;28;20047;-75
2021/06/25 00:18:01;;;;;;;3.08;1.25;;;21.00;58.30;;;;;;6297555;28;20033;-75
2021/06/25 00:21:02;;;;;;;1.95;1.10;;;21.00;58.50;;;;;;6305423;28;20423;-75
2021/06/25 00:24:04;;;;;;;2.85;1.10;;;21.00;58.60;;;;;;6297430;28;20086;-75
2021/06/25 00:27:06;;;;;;;2.67;0.93;;;21.00;58.50;;;;;;6297938;28;20067;-75
2021/06/25 00:30:08;;;;;;;1.30;0.90;;;21.00;58.50;;;;;;6298400;28;20487;-75
2021/06/25 00:33:10;;;;;;;0.93;0.85;;;21.10;58.50;;;;;;6303415;28;20165;-76
2021/06/25 00:36:11;;;;;;;0.85;0.68;;;21.00;58.40;;;;;;6306457;28;20024;-76
2021/06/25 00:39:12;;;;;;;0.80;0.70;;;21.10;58.40;;;;;;6322834;28;20028;-76
2021/06/25 00:42:14;;;;;;;1.05;0.73;;;21.10;58.40;;;;;;6324544;28;20510;-75
2021/06/25 00:45:19;;;;;;;0.88;0.73;;;21.10;58.40;;;;;;6322697;28;20086;-75
2021/06/25 00:48:20;;;;;;;3.53;1.10;;;21.10;58.50;;;;;;6306319;28;20036;-76
2021/06/25 00:51:21;;;;;;;3.78;1.25;;;21.00;58.40;;;;;;6324033;28;20065;-75
2021/06/25 00:54:22;;;;;;;2.70;1.20;;;21.10;58.50;;;;;;6324218;28;20040;-75
2021/06/25 00:57:24;;;;;;;2.40;1.00;;;21.10;58.30;;;;;;6323774;28;20028;-75
2021/06/25 01:00:25;;;;;;;3.22;1.05;;;21.10;58.20;;;;;;6305955;28;20032;-74
2021/06/25 01:03:26;;;;;;;1.88;0.80;;;21.20;58.10;;;;;;6299829;28;20119;-74
2021/06/25 01:06:28;;;;;;;3.25;1.05;;;21.20;58.10;;;;;;6272875;28;20033;-76
2021/06/25 01:09:30;;;;;;;1.75;1.10;;;21.20;58.00;;;;;;6290074;28;20037;-74
2021/06/25 01:12:32;;;;;;;1.80;0.90;;;21.20;58.00;;;;;;6298314;28;20424;-74
2021/06/25 01:15:33;;;;;;;0.80;0.80;;;21.20;57.90;;;;;;6298025;28;20378;-75
2021/06/25 01:18:35;;;;;;;4.88;1.10;;;21.20;57.90;;;;;;6297186;28;20512;-75
2021/06/25 01:21:37;;;;;;;1.13;0.68;;;21.20;57.90;;;;;;6263728;28;20059;-74
2021/06/25 01:24:38;;;;;;;2.13;1.00;;;21.30;57.90;;;;;;6272537;28;20374;-75
2021/06/25 01:27:39;;;;;;;1.98;0.68;;;21.20;57.90;;;;;;6255681;28;20060;-74
2021/06/25 01:30:44;;;;;;;2.17;1.00;;;21.20;57.90;;;;;;6275974;28;20123;-75
2021/06/25 01:33:46;;;;;;;2.55;0.88;;;21.20;58.00;;;;;;6285117;28;20040;-75
2021/06/25 01:36:47;;;;;;;2.05;0.63;;;21.20;58.00;;;;;;6310902;28;20068;-75
2021/06/25 01:39:50;;;;;;;0.55;0.55;;;21.20;58.00;;;;;;6310208;28;20029;-75
2021/06/25 01:42:52;;;;;;;2.22;0.98;;;21.20;58.10;;;;;;6277978;28;20339;-75
2021/06/25 01:45:54;;;;;;;1.73;0.95;;;21.10;58.10;;;;;;6278198;28;20045;-75
2021/06/25 01:48:55;;;;;;;1.80;0.90;;;21.10;58.20;;;;;;6268816;28;20045;-75
2021/06/25 01:51:56;;;;;;;0.60;0.60;;;21.10;58.30;;;;;;6277215;28;20445;-75
2021/06/25 01:54:58;;;;;;;1.02;0.73;;;21.00;58.40;;;;;;6276796;28;20049;-75
2021/06/25 01:57:59;;;;;;;0.68;0.68;;;21.00;58.70;;;;;;6277762;28;20168;-75
2021/06/25 02:01:12;;;;;;;2.50;0.75;;;21.00;59.50;;;;;;6291426;28;20115;-75
2021/06/25 02:04:13;;;;;;;0.90;0.73;;;20.90;59.00;;;;;;6305741;28;20052;-75
2021/06/25 02:07:14;;;;;;;0.75;0.70;;;20.90;59.20;;;;;;6301996;28;20457;-75
2021/06/25 02:10:15;;;;;;;1.38;1.08;;;20.80;59.20;;;;;;6276260;28;20048;-75
2021/06/25 02:13:16;;;;;;;1.40;1.00;;;20.80;59.20;;;;;;6259593;28;20037;-75
2021/06/25 02:16:17;;;;;;;13.05;1.13;;;20.80;59.40;;;;;;6276154;28;20025;-75
2021/06/25 02:19:19;;;;;;;3.80;0.82;;;20.80;60.00;;;;;;6276076;28;20040;-75
2021/06/25 02:22:20;;;;;;;2.80;0.80;;;20.70;59.30;;;;;;6275849;28;20061;-75
2021/06/25 02:25:22;;;;;;;0.70;0.70;;;20.70;60.00;;;;;;6276295;28;20473;-75
2021/06/25 02:28:23;;;;;;;0.77;0.60;;;20.70;59.50;;;;;;6275947;28;20095;-75
2021/06/25 02:31:24;;;;;;;1.23;0.98;;;20.70;59.50;;;;;;6275834;28;20033;-74
2021/06/25 02:34:25;;;;;;;1.30;0.73;;;20.70;59.50;;;;;;6263858;28;20358;-76
2021/06/25 02:37:26;;;;;;;1.38;0.90;;;20.70;59.60;;;;;;6292225;28;20048;-76
2021/06/25 02:40:27;;;;;;;1.42;1.00;;;20.70;59.70;;;;;;6291123;28;20553;-77
2021/06/25 02:43:29;;;;;;;0.80;0.80;;;20.60;59.70;;;;;;6275397;28;20037;-75
2021/06/25 02:46:31;;;;;;;3.20;1.35;;;20.60;59.80;;;;;;6292283;28;20048;-76
2021/06/25 02:49:32;;;;;;;6.55;2.08;;;20.70;59.80;;;;;;6258698;28;20029;-76
2021/06/25 02:52:34;;;;;;;2.67;1.65;;;20.60;59.70;;;;;;6275097;28;20070;-74
2021/06/25 02:55:35;;;;;;;6.43;1.70;;;20.60;59.60;;;;;;6291830;28;20190;-75
2021/06/25 02:58:37;;;;;;;6.35;1.98;;;20.60;59.60;;;;;;6258477;28;20056;-75
2021/06/25 03:01:38;;;;;;;3.78;2.47;;;20.60;59.60;;;;;;6275215;28;20095;-76
2021/06/25 03:04:39;;;;;;;6.78;2.00;;;20.60;59.60;;;;;;6282156;28;20040;-75
2021/06/25 03:07:41;;;;;;;3.28;2.20;;;20.60;59.50;;;;;;6299517;28;20512;-75
2021/06/25 03:10:43;;;;;;;6.43;2.50;;;20.60;59.60;;;;;;6299702;28;20412;-77
2021/06/25 03:13:44;;;;;;;4.40;2.67;;;20.50;59.60;;;;;;6299795;28;20034;-74
2021/06/25 03:16:46;;;;;;;4.03;2.58;;;20.50;59.70;;;;;;6299833;28;20029;-76
2021/06/25 03:19:47;;;;;;;7.53;3.03;;;20.40;59.60;;;;;;6299686;28;20350;-76
2021/06/25 03:22:49;;;;;;;9.27;3.75;;;20.40;59.60;;;;;;6315953;28;20041;-76
2021/06/25 03:25:50;;;;;;;3.90;2.72;;;20.40;59.50;;;;;;6299133;28;20423;-76
2021/06/25 03:28:51;;;;;;;6.05;2.88;;;20.30;59.30;;;;;;6300155;28;20437;-76
2021/06/25 03:31:53;;;;;;;9.30;2.80;;;20.30;59.30;;;;;;6296021;28;20068;-76
2021/06/25 03:34:54;;;;;;;3.70;2.30;;;20.30;59.30;;;;;;6300069;28;20036;-75
2021/06/25 03:37:55;;;;;;;5.10;1.80;;;20.30;59.30;;;;;;6299460;28;20047;-75
2021/06/25 03:40:56;;;;;;;2.70;1.38;;;20.30;59.50;;;;;;6299103;28;20089;-75
2021/06/25 03:43:57;;;;;;;1.20;1.10;;;20.30;59.70;;;;;;6315607;28;20044;-75
2021/06/25 03:46:58;;;;;;;3.25;1.90;;;20.30;59.90;;;;;;6298267;28;20033;-75
2021/06/25 03:50:00;;;;;;;2.90;2.13;;;20.30;60.10;;;;;;6315583;28;20043;-75
2021/06/25 03:53:02;;;;;;;4.13;2.20;;;20.30;59.90;;;;;;6298113;28;20036;-74
2021/06/25 03:56:10;;;;;;;5.05;2.10;;;20.40;59.80;;;;;;6297163;28;20037;-75
2021/06/25 03:59:11;;;;;;;2.95;1.00;;;20.40;59.60;;;;;;6297347;28;20416;-75
2021/06/25 04:02:12;;;;;;;1.77;1.30;;;20.40;59.70;;;;;;6297686;28;20047;-75
2021/06/25 04:05:18;;;;;;;2.33;1.73;;;20.50;59.80;;;;;;6315081;28;20335;-76
2021/06/25 04:08:48;;;;;;;3.38;2.47;;;20.50;59.80;;;;;;6272644;28;20037;-75
2021/06/25 04:11:49;;;;;;;3.55;2.30;;;20.50;59.50;;;;;;6280389;28;20373;-75
2021/06/25 04:14:50;;;;;;;5.50;2.22;;;20.50;59.10;;;;;;6296392;28;20033;-75
2021/06/25 04:17:51;;;;;;;3.75;2.53;;;20.60;59.00;;;;;;6296025;28;20047;-75
2021/06/25 04:20:54;;;;;;;4.32;1.30;;;20.60;58.80;;;;;;6295708;28;20040;-75
2021/06/25 04:23:55;;;;;;;1.88;1.30;;;20.70;58.90;;;;;;6296933;28;20063;-75
2021/06/25 04:26:56;;;;;;;5.30;2.30;;;20.70;59.00;;;;;;6296555;28;20378;-76
2021/06/25 04:30:00;;;;;;;1.85;1.38;;;20.70;58.90;;;;;;6294043;28;20119;-75
2021/06/25 04:33:02;;;;;;;2.90;1.33;;;20.70;58.70;;;;;;6271506;28;20037;-76
2021/06/25 04:36:04;;;;;;;2.35;1.48;;;20.80;58.70;;;;;;6288868;28;20033;-76
2021/06/25 04:39:06;;;;;;;1.75;1.35;;;20.90;58.80;;;;;;6271773;28;20025;-76
2021/06/25 04:42:10;;;;;;;1.52;1.30;;;20.90;58.90;;;;;;6312620;28;20476;-74
2021/06/25 04:45:12;;;;;;;8.10;1.27;;;20.90;58.90;;;;;;6294988;28;20461;-74
2021/06/25 04:48:15;;;;;;;1.85;1.40;;;20.90;58.90;;;;;;6294354;28;20087;-75
2021/06/25 04:51:16;;;;;;;1.55;1.30;;;21.00;59.00;;;;;;6270478;28;20099;-75
2021/06/25 04:54:17;;;;;;;1.77;1.23;;;21.00;59.00;;;;;;6293687;28;20441;-76
2021/06/25 04:57:19;;;;;;;2.67;1.05;;;21.00;59.00;;;;;;6295513;28;20033;-75
2021/06/25 05:00:22;;;;;;;13.70;6.45;;;21.10;59.10;;;;;;6295013;28;20040;-75
2021/06/25 05:03:23;;;;;;;5.45;2.33;;;21.10;59.10;;;;;;6306137;28;20036;-75
2021/06/25 05:06:24;;;;;;;6.60;1.30;;;21.10;59.10;;;;;;6278478;28;20037;-76
2021/06/25 05:09:25;;;;;;;1.55;0.95;;;21.20;59.10;;;;;;6295025;28;20119;-75
2021/06/25 05:12:27;;;;;;;2.33;1.13;;;21.10;59.10;;;;;;6301067;28;20449;-75
2021/06/25 05:15:28;;;;;;;4.47;1.02;;;21.20;59.20;;;;;;6300822;28;20033;-75
2021/06/25 05:18:29;;;;;;;1.17;1.00;;;21.20;59.10;;;;;;6295771;28;20041;-75
2021/06/25 05:21:30;;;;;;;3.65;2.08;;;21.30;59.00;;;;;;6294382;28;20135;-75
2021/06/25 05:24:31;;;;;;;2.08;1.38;;;21.30;57.90;;;;;;6302118;28;20041;-75
2021/06/25 05:27:33;;;;;;;2.65;1.88;;;21.30;57.60;;;;;;6289074;28;20055;-75
2021/06/25 05:30:35;;;;;;;4.82;2.90;;;21.30;57.40;;;;;;6325861;28;20457;-74
2021/06/25 05:33:36;;;;;;;6.20;2.70;;;21.30;57.00;;;;;;6309059;28;20372;-75
2021/06/25 05:36:40;;;;;;;7.68;3.03;;;21.40;56.20;;;;;;6300500;28;20465;-76
2021/06/25 05:39:41;;;;;;;5.35;2.78;;;21.40;55.50;;;;;;6301478;28;20352;-73
2021/06/25 05:42:43;;;;;;;5.75;2.83;;;21.40;55.20;;;;;;6300638;28;20042;-75
2021/06/25 05:45:45;;;;;;;5.78;3.03;;;21.40;54.70;;;;;;6300065;28;20036;-75
2021/06/25 05:48:46;;;;;;;3.83;2.58;;;21.40;54.20;;;;;;6300522;28;20036;-74
2021/06/25 05:51:49;;;;;;;9.18;3.13;;;21.40;54.50;;;;;;6316162;28;20028;-74
2021/06/25 05:54:50;;;;;;;5.47;3.42;;;21.50;53.70;;;;;;6299944;28;20028;-75
2021/06/25 05:57:51;;;;;;;4.95;3.15;;;21.60;54.10;;;;;;6301258;28;20449;-76
2021/06/25 06:00:52;;;;;;;9.50;4.53;;;21.60;53.40;;;;;;6277621;28;20040;-76
2021/06/25 06:03:53;;;;;;;12.80;4.85;;;21.60;53.40;;;;;;6309251;28;20036;-75
2021/06/25 06:06:56;;;;;;;9.93;3.53;;;21.60;53.30;;;;;;6299633;28;20032;-76
2021/06/25 06:09:57;;;;;;;5.72;3.28;;;21.70;53.10;;;;;;6299279;28;20362;-76
2021/06/25 06:12:58;;;;;;;6.13;3.10;;;21.70;52.90;;;;;;6301635;28;20024;-74
2021/06/25 06:16:00;;;;;;;7.45;3.45;;;21.60;52.80;;;;;;6298768;28;20028;-75
2021/06/25 06:19:03;;;;;;;4.72;3.15;;;21.60;52.80;;;;;;6298992;28;20118;-74
2021/06/25 06:32:18;;;;;;;7.05;3.33;;;21.30;52.60;;;;;;6297082;28;20028;-73
2021/06/25 06:35:19;;;;;;;6.53;2.83;;;21.40;52.60;;;;;;6297139;28;20449;-73
2021/06/25 06:38:21;;;;;;;5.65;2.90;;;21.40;52.40;;;;;;6296969;28;20101;-73
2021/06/25 06:41:22;;;;;;;6.40;3.25;;;21.40;52.30;;;;;;6298234;28;20043;-73
2021/06/25 06:44:23;;;;;;;8.65;3.50;;;21.50;52.20;;;;;;6297169;28;20046;-73
2021/06/25 06:47:25;;;;;;;8.43;3.88;;;21.50;52.10;;;;;;6299531;28;20049;-73
2021/06/25 06:50:26;;;;;;;7.13;3.25;;;21.70;52.10;;;;;;6314504;28;20094;-75
2021/06/25 06:53:27;;;;;;;9.60;3.10;;;21.70;51.90;;;;;;6280933;28;20032;-73
2021/06/25 06:56:29;;;;;;;9.35;3.08;;;21.80;51.70;;;;;;6280438;28;20051;-73
2021/06/25 06:59:30;;;;;;;7.22;3.80;;;21.90;51.40;;;;;;6298362;28;20037;-73
2021/06/25 07:02:31;;;;;;;8.13;3.10;;;21.90;51.20;;;;;;6296069;28;20098;-73
2021/06/25 07:05:32;;;;;;;6.65;3.40;;;22.00;51.10;;;;;;6294869;28;20373;-74
2021/06/25 07:08:34;;;;;;;7.60;3.70;;;22.00;51.10;;;;;;6297995;28;20412;-73
2021/06/25 07:11:36;;;;;;;4.22;3.10;;;22.20;51.30;;;;;;6297851;28;20048;-73
2021/06/25 07:14:37;;;;;;;6.95;3.30;;;22.10;51.10;;;;;;6296928;28;20093;-74
2021/06/25 07:17:38;;;;;;;4.85;2.95;;;22.30;51.00;;;;;;6297447;28;20119;-76
2021/06/25 07:20:40;;;;;;;7.70;2.85;;;22.30;50.50;;;;;;6313428;28;20469;-74
2021/06/25 07:23:41;;;;;;;9.98;3.30;;;22.40;50.30;;;;;;6278977;28;20509;-74
2021/06/25 07:26:42;;;;;;;6.28;3.05;;;22.50;50.10;;;;;;6296234;28;20032;-73
2021/06/25 07:29:44;;;;;;;5.80;2.67;;;22.60;49.80;;;;;;6309998;28;20083;-73
2021/06/25 07:32:45;;;;;;;8.45;2.53;;;22.70;49.60;;;;;;6319387;28;20417;-73
2021/06/25 07:35:46;;;;;;;4.55;3.00;;;22.80;49.20;;;;;;6303974;28;20043;-73
2021/06/25 07:38:47;;;;;;;8.77;2.83;;;22.90;48.90;;;;;;6322154;28;20021;-73
2021/06/25 07:41:49;;;;;;;9.68;2.63;;;22.90;48.50;;;;;;6318169;28;20048;-73
2021/06/25 07:44:50;;;;;;;11.80;3.67;;;22.90;48.40;;;;;;6319971;28;20358;-73
2021/06/25 07:47:51;;;;;;;5.25;3.05;;;22.80;48.50;;;;;;6304221;28;20047;-74
2021/06/25 07:50:53;;;;;;;5.57;2.55;;;22.80;48.30;;;;;;6321034;28;20052;-74
2021/06/25 07:53:54;;;;;;;3.95;2.53;;;22.80;48.30;;;;;;6320147;28;20107;-74
2021/06/25 07:56:55;;;;;;;4.00;2.53;;;22.80;48.20;;;;;;6320660;28;20111;-74
2021/06/25 07:59:56;;;;;;;4.57;2.95;;;22.80;48.20;;;;;;6303600;28;20024;-74
2021/06/25 08:02:57;;;;;;;5.05;2.53;;;22.80;48.10;;;;;;6302105;28;20398;-74
2021/06/25 08:05:59;;;;;;;5.57;2.72;;;22.80;48.00;;;;;;6293220;28;20040;-73
2021/06/25 08:09:03;;;;;;;3.97;2.40;;;22.90;48.00;;;;;;6277699;28;20115;-73
2021/06/25 08:12:05;;;;;;;6.68;2.38;;;22.90;47.90;;;;;;6295138;28;20029;-73
2021/06/25 08:15:07;;;;;;;7.25;2.53;;;23.00;47.70;;;;;;6296016;28;20591;-73
2021/06/25 08:18:08;;;;;;;6.88;2.30;;;23.00;47.60;;;;;;6295873;28;20040;-74
2021/06/25 08:21:09;;;;;;;5.78;2.75;;;23.00;47.60;;;;;;6296267;28;20029;-73
2021/06/25 08:24:11;;;;;;;2.38;1.95;;;23.10;48.10;;;;;;6292959;28;20037;-73
2021/06/25 08:27:12;;;;;;;6.05;2.95;;;23.10;47.30;;;;;;6295982;28;20029;-73
2021/06/25 08:30:14;;;;;;;11.95;2.30;;;23.20;47.20;;;;;;6278713;28;20296;-74
2021/06/25 08:33:15;;;;;;;2.70;2.05;;;23.20;47.00;;;;;;6304848;28;20024;-73
2021/06/25 08:36:16;;;;;;;9.85;2.55;;;23.40;46.80;;;;;;6320765;28;20040;-74
2021/06/25 08:39:17;;;;;;;8.77;2.33;;;23.50;46.60;;;;;;6319569;28;20048;-74
2021/06/25 08:42:19;;;;;;;5.05;2.28;;;23.50;46.30;;;;;;6320435;28;20119;-73
2021/06/25 08:45:21;;;;;;;4.50;2.33;;;23.60;46.10;;;;;;6302767;28;20043;-72
2021/06/25 08:48:25;;;;;;;4.57;2.38;;;23.70;45.80;;;;;;6319951;28;20108;-73
2021/06/25 08:51:26;;;;;;;7.00;2.67;;;23.60;45.70;;;;;;6303369;28;20044;-75
2021/06/25 08:54:28;;;;;;;3.17;2.03;;;23.70;45.40;;;;;;6319638;28;20093;-74
2021/06/25 08:57:34;;;;;;;4.72;2.50;;;23.70;45.10;;;;;;6319732;28;20094;-74
2021/06/25 09:00:35;;;;;;;6.82;2.47;;;23.80;45.10;;;;;;6321548;28;20036;-74
2021/06/25 09:03:40;;;;;;;5.28;2.10;;;23.80;44.90;;;;;;6297140;28;20419;-74
2021/06/25 09:06:54;;;;;;;5.20;2.80;;;23.80;44.90;;;;;;6272852;28;20116;-75
2021/06/25 09:09:56;;;;;;;3.38;2.17;;;23.90;44.80;;;;;;6288140;28;20111;-73
2021/06/25 09:13:12;;;;;;;4.55;1.88;;;23.90;44.50;;;;;;6277887;28;20082;-74
2021/06/25 09:16:25;;;;;;;4.25;2.10;;;24.00;44.30;;;;;;6294269;28;20029;-73
2021/06/25 09:19:27;;;;;;;6.93;1.83;;;24.10;44.20;;;;;;6294240;28;20060;-73
2021/06/25 09:22:28;;;;;;;2.75;2.10;;;24.20;43.90;;;;;;6293320;28;20079;-75
2021/06/25 09:25:29;;;;;;;4.28;1.83;;;24.40;43.60;;;;;;6295087;28;20040;-73
2021/06/25 09:28:34;;;;;;;5.13;1.98;;;24.50;43.30;;;;;;6295121;28;20051;-74
2021/06/25 09:31:35;;;;;;;3.20;1.80;;;24.50;42.90;;;;;;6294319;28;20036;-74
2021/06/25 09:34:44;;;;;;;4.43;2.20;;;24.80;42.50;;;;;;6271160;28;20496;-73
2021/06/25 09:37:49;;;;;;;2.83;1.65;;;24.90;43.00;;;;;;6268703;28;20037;-74
2021/06/25 09:40:51;;;;;;;2.30;1.70;;;24.90;41.80;;;;;;6252227;28;20041;-74
2021/06/25 09:44:03;;;;;;;2.22;1.77;;;24.90;41.50;;;;;;6252254;28;20220;-73
2021/06/25 09:47:05;;;;;;;2.50;1.70;;;25.10;41.30;;;;;;6253758;28;20315;-73
2021/06/25 09:50:12;;;;;;;3.55;2.20;;;25.10;40.80;;;;;;6271890;28;20058;-74
2021/06/25 09:53:13;;;;;;;2.65;1.70;;;25.20;40.70;;;;;;6275354;28;20041;-74
2021/06/25 09:56:25;;;;;;;2.50;1.70;;;25.20;40.40;;;;;;6292153;28;20131;-74
2021/06/25 10:02:48;;;;;;;2.33;1.70;;;25.10;40.30;;;;;;6283311;28;20032;-75
2021/06/25 10:06:04;;;;;;;2.35;1.60;;;25.10;40.50;;;;;;6316931;28;20044;-74
2021/06/25 10:09:06;;;;;;;1.83;1.42;;;25.10;40.10;;;;;;6299858;28;20142;-75
2021/06/25 10:12:13;;;;;;;2.30;1.70;;;25.20;40.10;;;;;;6317009;28;20373;-74
2021/06/25 10:15:14;;;;;;;5.47;1.80;;;25.20;39.80;;;;;;6300617;28;20056;-75
2021/06/25 10:18:17;;;;;;;2.35;1.70;;;25.30;40.10;;;;;;6299233;28;20470;-75
2021/06/25 10:21:21;;;;;;;3.05;1.83;;;25.40;39.60;;;;;;6316428;28;20051;-74
2021/06/25 10:24:23;;;;;;;3.78;1.63;;;25.50;39.50;;;;;;6300582;28;20058;-73
2021/06/25 10:27:25;;;;;;;4.55;1.60;;;25.60;38.90;;;;;;6300925;28;20102;-76
2021/06/25 10:30:31;;;;;;;4.65;1.38;;;25.60;38.60;;;;;;6280377;28;20044;-75
2021/06/25 10:33:32;;;;;;;2.42;1.48;;;25.70;38.20;;;;;;6292466;28;20043;-75
2021/06/25 10:36:36;;;;;;;1.42;1.10;;;25.80;37.80;;;;;;6319094;28;20028;-75
2021/06/25 10:39:37;;;;;;;3.50;1.75;;;25.80;37.80;;;;;;6317699;28;20473;-75
2021/06/25 10:42:40;;;;;;;2.40;1.48;;;25.90;37.50;;;;;;6300177;28;20040;-75
2021/06/25 10:45:42;;;;;;;3.55;1.77;;;25.90;37.40;;;;;;6302559;28;20055;-74
2021/06/25 10:48:43;;;;;;;1.38;1.15;;;25.90;37.30;;;;;;6301381;28;20422;-74
2021/06/25 10:51:45;;;;;;;1.63;1.52;;;25.90;37.50;;;;;;6299486;28;20101;-75
2021/06/25 10:55:12;;;;;;;2.40;1.40;;;26.00;37.60;;;;;;6299577;28;20078;-74
2021/06/25 10:58:21;;;;;;;4.75;1.65;;;26.10;37.60;;;;;;6315320;28;20043;-74
2021/06/25 11:01:46;;;;;;;5.25;1.50;;;26.10;37.50;;;;;;6298128;28;20037;-73
2021/06/25 11:04:48;;;;;;;4.03;1.10;;;26.10;37.30;;;;;;6294517;28;20074;-73
2021/06/25 11:07:51;;;;;;;1.40;1.13;;;26.10;37.40;;;;;;6294124;28;20479;-74
2021/06/25 11:10:57;;;;;;;2.22;1.17;;;26.90;36.30;;;;;;6296777;28;20048;-75
2021/06/25 11:14:00;;;;;;;5.15;1.60;;;28.10;34.30;;;;;;6295740;28;20040;-75
2021/06/25 11:17:01;;;;;;;2.50;1.50;;;29.10;32.80;;;;;;6295898;28;20094;-75
2021/06/25 11:20:29;;;;;;;1.85;1.10;;;29.70;31.40;;;;;;6296124;28;20040;-74
2021/06/25 11:23:39;;;;;;;5.25;1.42;;;30.40;30.10;;;;;;6294916;28;20067;-74
2021/06/25 11:27:00;;;;;;;4.15;1.33;;;30.80;29.60;;;;;;6295754;28;20155;-74
2021/06/25 11:30:01;;;;;;;2.63;1.55;;;30.80;29.50;;;;;;6292998;28;20062;-73
2021/06/25 11:33:27;;;;;;;3.28;1.58;;;31.30;29.50;;;;;;6303192;28;20040;-74
2021/06/25 11:36:48;;;;;;;2.53;1.55;;;32.10;28.60;;;;;;6271892;28;20029;-74
2021/06/25 11:39:51;;;;;;;4.13;1.70;;;32.40;27.80;;;;;;6288207;28;20381;-74
2021/06/25 11:42:53;;;;;;;1.80;1.33;;;32.50;27.10;;;;;;6253673;28;20063;-74
2021/06/25 11:45:54;;;;;;;1.98;1.30;;;31.80;28.10;;;;;;6288567;28;20040;-74
2021/06/25 11:49:03;;;;;;;3.95;1.30;;;31.00;28.50;;;;;;6255198;28;20048;-75
2021/06/25 11:52:13;;;;;;;2.45;1.17;;;30.10;29.10;;;;;;6239166;28;20124;-75
2021/06/25 11:55:15;;;;;;;1.55;1.30;;;29.70;29.90;;;;;;6266110;28;20424;-75
2021/06/25 11:58:20;;;;;;;2.58;1.27;;;30.10;29.70;;;;;;6259555;28;20458;-75
2021/06/25 12:01:21;;;;;;;1.60;1.40;;;30.60;29.40;;;;;;6247822;28;20047;-74
2021/06/25 12:04:37;;;;;;;1.77;1.33;;;31.30;28.60;;;;;;6249548;28;20033;-74
2021/06/25 12:07:39;;;;;;;1.50;1.40;;;31.30;28.40;;;;;;6246945;28;20056;-74
2021/06/25 12:10:42;;;;;;;1.65;1.45;;;31.70;28.20;;;;;;6247179;28;20061;-74
2021/06/25 12:13:43;;;;;;;1.55;1.27;;;32.20;27.90;;;;;;6249417;28;20021;-74
2021/06/25 12:16:52;;;;;;;2.63;1.35;;;32.60;27.50;;;;;;6271954;28;20039;-74
2021/06/25 12:19:56;;;;;;;1.25;1.15;;;33.00;27.30;;;;;;6272358;28;20060;-74
2021/06/25 12:23:07;;;;;;;1.75;1.13;;;33.60;26.80;;;;;;6271905;28;20033;-74
2021/06/25 12:26:18;;;;;;;1.65;1.33;;;33.80;26.40;;;;;;6272498;28;20041;-74
2021/06/25 12:29:19;;;;;;;9.48;1.33;;;34.10;25.90;;;;;;6271301;28;20025;-74
2021/06/25 12:32:20;;;;;;;12.85;1.60;;;34.30;25.70;;;;;;6276578;28;20086;-75
2021/06/25 12:35:29;;;;;;;2.63;1.20;;;34.50;25.50;;;;;;6274023;28;20044;-75
2021/06/25 12:38:32;;;;;;;2.42;1.35;;;34.50;25.30;;;;;;6273878;28;20044;-75
2021/06/25 12:41:47;;;;;;;1.60;1.23;;;34.40;25.20;;;;;;6271159;28;20052;-74
2021/06/25 12:44:49;;;;;;;1.88;1.17;;;34.30;25.20;;;;;;6272969;28;20041;-74
2021/06/25 12:47:50;;;;;;;1.13;1.02;;;34.20;25.30;;;;;;6271488;28;20036;-75
2021/06/25 12:51:26;;;;;;;1.85;1.10;;;34.30;25.20;;;;;;6271668;28;20139;-74
2021/06/25 12:54:31;;;;;;;1.48;1.35;;;34.40;24.90;;;;;;6139812;28;20065;-74
2021/06/25 12:57:33;;;;;;;1.15;0.90;;;34.50;24.80;;;;;;6172184;28;20034;-74
2021/06/25 13:00:34;;;;;;;1.88;1.02;;;34.80;24.30;;;;;;6156517;28;20122;-74
2021/06/25 13:03:36;;;;;;;4.63;1.25;;;34.70;24.20;;;;;;6186236;28;20133;-74
2021/06/25 13:06:38;;;;;;;1.55;1.02;;;34.00;24.90;;;;;;6196550;28;20057;-74
2021/06/25 13:09:40;;;;;;;1.10;1.00;;;34.10;25.00;;;;;;6196989;28;20101;-73
2021/06/25 13:12:41;;;;;;;1.20;1.00;;;34.70;24.50;;;;;;6196128;28;20492;-73
2021/06/25 13:16:03;;;;;;;1.50;1.27;;;35.10;23.90;;;;;;6164010;28;20113;-73
2021/06/25 13:19:08;;;;;;;1.20;1.10;;;35.70;23.50;;;;;;6196463;28;20038;-76
2021/06/25 13:22:13;;;;;;;4.63;0.95;;;36.30;23.20;;;;;;6163808;28;20057;-75
2021/06/25 13:25:21;;;;;;;1.20;1.00;;;37.10;22.60;;;;;;6182692;28;20177;-75
2021/06/25 13:28:22;;;;;;;1.20;1.10;;;37.90;22.10;;;;;;6202050;28;20042;-75
2021/06/25 13:31:23;;;;;;;5.95;1.40;;;38.70;21.20;;;;;;6241622;28;20520;-75
2021/06/25 13:34:25;;;;;;;1.02;1.00;;;39.30;20.70;;;;;;6277036;28;20029;-73
2021/06/25 13:37:40;;;;;;;2.38;1.05;;;39.80;20.30;;;;;;6276844;28;20043;-73
2021/06/25 13:41:01;;;;;;;2.45;1.10;;;40.10;19.80;;;;;;6291979;28;20041;-74
2021/06/25 13:44:03;;;;;;;1.30;1.20;;;40.50;19.60;;;;;;6259651;28;20345;-75
2021/06/25 13:47:06;;;;;;;3.50;1.10;;;41.00;19.00;;;;;;6275872;28;20039;-74
2021/06/25 13:50:08;;;;;;;1.85;1.20;;;41.50;19.00;;;;;;6274208;28;20025;-74
2021/06/25 13:53:09;;;;;;;1.25;1.15;;;42.00;18.60;;;;;;6276814;28;20520;-75
2021/06/25 13:56:20;;;;;;;0.88;0.88;;;42.10;18.20;;;;;;6274716;28;20026;-75
2021/06/25 13:59:22;;;;;;;1.38;1.02;;;42.30;18.10;;;;;;6276198;28;20041;-73
2021/06/25 14:02:29;;;;;;;1.20;1.10;;;42.70;18.00;;;;;;6264648;28;20056;-74
2021/06/25 14:05:31;;;;;;;2.90;1.08;;;43.20;17.60;;;;;;6284881;28;20181;-74
2021/06/25 14:08:44;;;;;;;2.03;1.23;;;43.30;17.30;;;;;;6301609;28;20548;-74
2021/06/25 14:11:45;;;;;;;3.88;1.33;;;43.40;17.10;;;;;;6300039;28;20051;-75
2021/06/25 14:14:50;;;;;;;2.67;1.20;;;43.30;17.10;;;;;;6300202;28;20078;-74
2021/06/25 14:17:59;;;;;;;1.05;0.98;;;43.20;17.10;;;;;;6300346;28;20068;-75
2021/06/25 14:21:00;;;;;;;1.50;0.80;;;43.20;17.00;;;;;;6275539;28;20040;-75
2021/06/25 14:24:04;;;;;;;1.27;1.05;;;43.10;17.10;;;;;;6299500;28;20106;-74
2021/06/25 14:27:06;;;;;;;2.85;1.20;;;42.90;17.10;;;;;;6299888;28;20362;-75
2021/06/25 14:30:08;;;;;;;1.65;1.20;;;43.00;17.20;;;;;;6299693;28;20119;-73
2021/06/25 14:33:09;;;;;;;2.80;1.23;;;43.10;16.90;;;;;;6285117;28;20025;-75
2021/06/25 14:36:11;;;;;;;2.15;1.20;;;43.00;17.00;;;;;;6256242;28;20025;-75
2021/06/25 14:39:12;;;;;;;4.20;1.15;;;43.20;16.90;;;;;;6246608;28;20090;-74
2021/06/25 14:42:13;;;;;;;3.35;1.02;;;43.20;16.80;;;;;;6266237;28;20464;-75
2021/06/25 14:45:14;;;;;;;1.27;0.90;;;43.10;16.80;;;;;;6298074;28;20040;-74
2021/06/25 14:48:16;;;;;;;5.15;1.27;;;42.60;17.10;;;;;;6297428;28;20028;-75
2021/06/25 14:51:17;;;;;;;1.58;1.23;;;42.60;17.20;;;;;;6281091;28;20540;-74
2021/06/25 14:54:19;;;;;;;1.42;1.00;;;42.30;17.30;;;;;;6282696;28;20036;-74
2021/06/25 14:57:21;;;;;;;1.77;1.27;;;42.00;17.50;;;;;;6282685;28;20028;-74
2021/06/25 15:00:22;;;;;;;5.05;1.20;;;41.70;17.80;;;;;;6299850;28;20024;-75
2021/06/25 15:03:23;;;;;;;2.17;1.25;;;41.70;17.90;;;;;;6282591;28;20024;-73
2021/06/25 15:06:24;;;;;;;1.40;1.30;;;41.70;18.00;;;;;;6299453;28;20036;-75
2021/06/25 15:09:25;;;;;;;2.00;1.23;;;41.90;17.90;;;;;;6282547;28;20033;-75
2021/06/25 15:12:28;;;;;;;1.33;0.85;;;41.90;17.60;;;;;;6298871;28;20120;-75
2021/06/25 15:15:29;;;;;;;1.77;1.08;;;41.70;17.80;;;;;;6299324;28;20071;-74
2021/06/25 15:18:31;;;;;;;2.83;1.52;;;41.30;17.90;;;;;;6298501;28;20048;-74
2021/06/25 15:21:32;;;;;;;2.35;1.13;;;41.00;18.20;;;;;;6314900;28;20040;-75
2021/06/25 15:24:33;;;;;;;2.72;1.20;;;40.60;18.50;;;;;;6298204;28;20052;-74
2021/06/25 15:27:35;;;;;;;3.08;1.50;;;40.20;18.80;;;;;;6298708;28;20135;-74
2021/06/25 15:30:36;;;;;;;6.00;1.23;;;39.70;19.00;;;;;;6265819;28;20060;-74
2021/06/25 15:33:38;;;;;;;1.42;1.00;;;39.30;19.30;;;;;;6258911;28;20452;-75
2021/06/25 15:36:39;;;;;;;2.72;1.50;;;39.10;19.60;;;;;;6289439;28;20126;-74
2021/06/25 15:39:40;;;;;;;2.03;1.30;;;39.00;19.70;;;;;;6273213;28;20129;-74
2021/06/25 15:42:41;;;;;;;1.75;1.25;;;38.80;19.80;;;;;;6255691;28;20029;-74
2021/06/25 15:45:42;;;;;;;2.88;1.00;;;38.80;20.00;;;;;;6246712;28;20060;-75
2021/06/25 15:48:43;;;;;;;1.65;1.55;;;38.70;20.00;;;;;;6272242;28;20033;-73
2021/06/25 15:51:46;;;;;;;2.00;1.38;;;38.60;20.10;;;;;;6273483;28;20090;-74
2021/06/25 15:54:47;;;;;;;1.88;1.45;;;38.60;20.10;;;;;;6256567;28;20103;-74
2021/06/25 15:57:50;;;;;;;6.53;1.40;;;38.80;20.10;;;;;;6248496;28;20359;-74
2021/06/25 16:00:51;;;;;;;2.78;1.20;;;38.70;20.00;;;;;;6273481;28;20047;-74
2021/06/25 16:03:52;;;;;;;6.20;1.20;;;38.70;20.10;;;;;;6305026;28;20384;-75
2021/06/25 16:06:53;;;;;;;1.95;1.40;;;39.00;20.00;;;;;;6322808;28;20047;-75